Weather at La Guardia Airport

Public forecast

Using degrees Fahrenheit for public forecast. Weather courtesy of forecast.io.

Current aviation weather report (METAR) for La Guardia Airport

Retrieved 2021/01/23 11:51 UTC (52 minutes ago):

KLGA 231151Z 31018G26KT 10SM FEW055 BKN070 M01/M12 A3000 RMK AO2 PK WND 31026/1149 SLP159 T10061122 10028 21006 53021

Aviation forecast (TAF) for La Guardia Airport

Retrieved 2021/01/23 12:42 UTC (51 seconds ago):

TAF KLGA 231140Z 2312/2418 30017G24KT P6SM SCT040 BKN070 FM231400 30018G28KT P6SM SCT040 SCT070 FM231600 30020G30KT P6SM SCT040 SCT070 FM231800 31022G32KT P6SM FEW020 SCT040 FM240300 31020G29KT P6SM FEW040 FM240600 30014G24KT P6SM FEW040